createdAt,value
2023-05-24T00:01:38.460Z,3.50
2023-05-24T00:04:06.356Z,3.60
2023-05-24T00:06:35.318Z,3.00
2023-05-24T00:09:03.837Z,2.80
2023-05-24T00:11:33.753Z,3.40
2023-05-24T00:14:01.379Z,3.50
2023-05-24T00:16:29.122Z,3.40
2023-05-24T00:18:59.467Z,4.40
2023-05-24T00:21:27.036Z,3.30
2023-05-24T00:23:54.687Z,3.10
2023-05-24T00:26:25.425Z,3.30
2023-05-24T00:28:56.274Z,3.50
2023-05-24T00:31:24.108Z,4.00
2023-05-24T00:33:51.998Z,4.10
2023-05-24T00:36:19.775Z,3.60
2023-05-24T00:38:48.964Z,3.80
2023-05-24T00:41:17.132Z,3.70
2023-05-24T00:43:44.801Z,3.50
2023-05-24T00:46:24.382Z,3.60
2023-05-24T00:48:52.221Z,3.90
2023-05-24T00:51:20.075Z,3.50
2023-05-24T00:53:48.481Z,3.50
2023-05-24T00:56:17.133Z,3.40
2023-05-24T00:58:45.006Z,3.50
2023-05-24T01:01:12.918Z,4.20
2023-05-24T01:03:42.025Z,4.50
2023-05-24T01:06:13.259Z,4.40
2023-05-24T01:08:42.767Z,3.40
2023-05-24T01:11:29.435Z,4.00
2023-05-24T01:14:06.112Z,3.80
2023-05-24T01:16:52.412Z,4.30
2023-05-24T01:19:39.310Z,4.60
2023-05-24T01:22:31.645Z,4.20
2023-05-24T01:25:07.120Z,4.60
2023-05-24T01:27:36.143Z,4.40
2023-05-24T01:30:04.584Z,4.20
2023-05-24T01:32:32.254Z,5.10
2023-05-24T01:35:00.150Z,5.00
2023-05-24T01:37:27.781Z,4.40
2023-05-24T01:39:55.643Z,4.10
2023-05-24T01:42:28.067Z,4.40
2023-05-24T01:45:23.332Z,4.90
2023-05-24T01:47:54.141Z,4.90
2023-05-24T01:50:27.249Z,5.20
2023-05-24T01:52:54.911Z,4.60
2023-05-24T01:55:24.521Z,4.30
2023-05-24T01:57:52.082Z,4.40
2023-05-24T02:00:20.048Z,4.50
2023-05-24T02:02:47.878Z,5.50
2023-05-24T02:05:17.113Z,5.00
2023-05-24T02:07:44.883Z,4.80
2023-05-24T02:10:12.438Z,4.50
2023-05-24T02:12:40.106Z,4.50
2023-05-24T02:15:08.586Z,5.40
2023-05-24T02:17:37.333Z,5.90
2023-05-24T02:20:05.730Z,5.80
2023-05-24T02:22:33.522Z,4.30
2023-05-24T02:25:01.392Z,4.70
2023-05-24T02:27:29.054Z,4.90
2023-05-24T02:29:57.836Z,4.80
2023-05-24T02:32:25.706Z,5.10
2023-05-24T02:34:53.370Z,4.90
2023-05-24T02:37:21.039Z,4.70
2023-05-24T02:39:48.962Z,3.90
2023-05-24T02:42:16.560Z,4.20
2023-05-24T02:44:48.316Z,4.60
2023-05-24T02:47:16.078Z,5.10
2023-05-24T02:49:43.945Z,4.30
2023-05-24T02:52:11.618Z,4.20
2023-05-24T02:54:39.377Z,4.40
2023-05-24T02:57:09.089Z,4.70
2023-05-24T02:59:37.159Z,5.70
2023-05-24T03:02:05.410Z,5.40
2023-05-24T03:04:33.302Z,5.40
2023-05-24T03:07:01.168Z,5.60
2023-05-24T03:09:28.835Z,5.30
2023-05-24T03:11:56.494Z,5.30
2023-05-24T03:14:25.385Z,5.40
2023-05-24T03:16:53.146Z,5.10
2023-05-24T03:19:20.888Z,5.60
2023-05-24T03:21:48.987Z,4.80
2023-05-24T03:24:16.549Z,5.60
2023-05-24T03:26:44.416Z,5.20
2023-05-24T03:29:12.039Z,5.30
2023-05-24T03:31:41.674Z,5.30
2023-05-24T03:34:09.857Z,4.20
2023-05-24T03:36:39.058Z,4.30
2023-05-24T03:39:07.897Z,4.70
2023-05-24T03:41:48.106Z,4.10
2023-05-24T03:44:15.973Z,4.70
2023-05-24T03:46:43.639Z,4.00
2023-05-24T03:49:11.708Z,3.70
2023-05-24T03:51:39.381Z,3.70
2023-05-24T03:54:06.928Z,3.60
2023-05-24T03:56:34.590Z,3.70
2023-05-24T03:59:04.413Z,4.50
2023-05-24T04:01:37.082Z,3.90
2023-05-24T04:04:04.893Z,13.90
2023-05-24T04:06:32.725Z,3.90
2023-05-24T04:09:01.099Z,3.50
2023-05-24T04:11:29.320Z,3.70
2023-05-24T04:13:57.915Z,4.00
2023-05-24T04:16:26.715Z,3.90
2023-05-24T04:18:58.218Z,3.70
2023-05-24T04:21:25.960Z,3.30
2023-05-24T04:23:54.237Z,4.00
2023-05-24T04:26:22.198Z,3.90
2023-05-24T04:28:51.196Z,4.30
2023-05-24T04:31:20.640Z,4.30
2023-05-24T04:33:48.777Z,3.70
2023-05-24T04:36:17.879Z,3.80
2023-05-24T04:38:52.645Z,3.60
2023-05-24T04:41:20.366Z,4.30
2023-05-24T04:43:48.851Z,4.30
2023-05-24T04:46:17.259Z,4.30
2023-05-24T04:48:44.993Z,4.30
2023-05-24T04:51:13.007Z,4.00
2023-05-24T04:53:40.626Z,4.20
2023-05-24T04:56:08.390Z,4.30
2023-05-24T04:58:38.138Z,4.70
2023-05-24T05:01:07.920Z,4.30
2023-05-24T05:03:35.870Z,4.00
2023-05-24T05:06:03.748Z,3.80
2023-05-24T05:08:31.411Z,4.40
2023-05-24T05:10:59.074Z,4.50
2023-05-24T05:13:26.740Z,4.50
2023-05-24T05:15:54.395Z,5.00
2023-05-24T05:18:22.058Z,4.20
2023-05-24T05:20:49.966Z,4.60
2023-05-24T05:23:17.903Z,3.80
2023-05-24T05:25:45.773Z,4.40
2023-05-24T05:28:13.490Z,4.60
2023-05-24T05:30:41.774Z,4.40
2023-05-24T05:33:10.022Z,4.30
2023-05-24T05:35:38.052Z,4.60
2023-05-24T05:38:05.722Z,4.00
2023-05-24T05:40:33.378Z,4.30
2023-05-24T05:43:01.659Z,4.50
2023-05-24T05:45:29.148Z,4.20
2023-05-24T05:47:57.241Z,4.80
2023-05-24T05:50:25.154Z,4.50
2023-05-24T05:52:52.714Z,4.40
2023-05-24T05:55:20.783Z,3.90
2023-05-24T05:57:48.672Z,4.40
2023-05-24T06:00:17.240Z,4.20
2023-05-24T06:02:44.843Z,4.60
2023-05-24T06:05:15.328Z,4.30
2023-05-24T06:07:43.807Z,4.30
2023-05-24T06:10:12.021Z,4.20
2023-05-24T06:12:41.177Z,3.70
2023-05-24T06:15:09.725Z,3.90
2023-05-24T06:17:37.760Z,3.80
2023-05-24T06:20:16.067Z,4.10
2023-05-24T06:22:44.217Z,4.10
2023-05-24T06:25:15.779Z,3.80
2023-05-24T06:27:43.438Z,3.50
2023-05-24T06:30:11.759Z,3.30
2023-05-24T06:32:40.087Z,3.10
2023-05-24T06:35:09.076Z,3.20
2023-05-24T06:37:36.853Z,3.30
2023-05-24T06:40:10.042Z,3.10
2023-05-24T06:42:39.144Z,3.50
2023-05-24T06:45:08.663Z,3.50
2023-05-24T06:47:37.225Z,3.20
2023-05-24T06:50:05.612Z,3.20
2023-05-24T06:52:33.270Z,3.30
2023-05-24T06:55:01.112Z,3.20
2023-05-24T06:57:29.111Z,3.60
2023-05-24T06:59:57.487Z,3.10
2023-05-24T07:02:27.835Z,3.30
2023-05-24T07:04:55.503Z,3.70
2023-05-24T07:07:23.340Z,3.00
2023-05-24T07:09:51.532Z,3.80
2023-05-24T07:12:19.190Z,3.30
2023-05-24T07:14:47.661Z,3.80
2023-05-24T07:17:15.325Z,3.70
2023-05-24T07:19:43.188Z,3.80
2023-05-24T07:22:11.465Z,4.40
2023-05-24T07:24:39.436Z,3.70
2023-05-24T07:27:07.100Z,3.40
2023-05-24T07:29:34.657Z,4.00
2023-05-24T07:32:02.755Z,3.50
2023-05-24T07:34:31.512Z,4.10
2023-05-24T07:37:00.965Z,3.80
2023-05-24T07:39:28.907Z,4.10
2023-05-24T07:41:57.479Z,3.80
2023-05-24T07:44:25.451Z,3.80
2023-05-24T07:46:53.207Z,4.00
2023-05-24T07:49:21.185Z,3.90
2023-05-24T07:51:49.660Z,3.80
2023-05-24T07:54:17.434Z,4.00
2023-05-24T07:56:45.210Z,3.90
2023-05-24T07:59:13.161Z,4.00
2023-05-24T08:01:40.828Z,3.80
2023-05-24T08:04:10.465Z,3.80
2023-05-24T08:06:38.377Z,3.40
2023-05-24T08:09:08.117Z,3.40
2023-05-24T08:11:35.875Z,3.50
2023-05-24T08:14:04.049Z,3.90
2023-05-24T08:16:32.146Z,3.50
2023-05-24T08:19:00.306Z,3.50
2023-05-24T08:21:29.543Z,3.40
2023-05-24T08:23:57.567Z,3.30
2023-05-24T08:26:25.232Z,3.40
2023-05-24T08:28:53.213Z,2.90
2023-05-24T08:31:22.304Z,3.40
2023-05-24T08:33:53.410Z,3.20
2023-05-24T08:36:21.406Z,3.30
2023-05-24T08:38:49.181Z,3.30
2023-05-24T08:41:16.938Z,3.20
2023-05-24T08:43:44.951Z,3.10
2023-05-24T08:46:12.983Z,3.20
2023-05-24T08:48:47.475Z,3.40
2023-05-24T08:51:16.152Z,3.20
2023-05-24T08:53:48.949Z,3.30
2023-05-24T08:56:20.129Z,3.10
2023-05-24T08:58:47.889Z,3.30
2023-05-24T09:01:16.402Z,3.50
2023-05-24T09:03:45.087Z,3.20
2023-05-24T09:06:15.070Z,3.30
2023-05-24T09:08:44.125Z,3.20
2023-05-24T09:11:12.249Z,3.40
2023-05-24T09:13:40.233Z,3.30
2023-05-24T09:16:08.338Z,3.10
2023-05-24T09:18:37.147Z,3.20
2023-05-24T09:21:04.831Z,2.90
2023-05-24T09:23:32.701Z,3.30
2023-05-24T09:26:00.592Z,3.40
2023-05-24T09:28:32.854Z,3.60
2023-05-24T09:31:06.368Z,2.90
2023-05-24T09:33:35.532Z,3.00
2023-05-24T09:36:05.815Z,2.70
2023-05-24T09:38:37.397Z,3.00
2023-05-24T09:41:09.169Z,3.20
2023-05-24T09:43:47.688Z,3.20
2023-05-24T09:46:20.819Z,3.00
2023-05-24T09:48:59.336Z,3.10
2023-05-24T09:51:28.167Z,3.10
2023-05-24T09:54:01.568Z,2.70
2023-05-24T09:56:30.276Z,3.20
2023-05-24T09:58:58.337Z,2.70
2023-05-24T10:01:27.196Z,2.90
2023-05-24T10:03:55.926Z,3.60
2023-05-24T10:06:24.355Z,3.80
2023-05-24T10:08:52.491Z,3.50
2023-05-24T10:11:21.876Z,3.00
2023-05-24T10:13:49.748Z,3.20
2023-05-24T10:16:17.672Z,3.00
2023-05-24T10:18:46.092Z,3.00
2023-05-24T10:21:14.428Z,3.10
2023-05-24T10:23:43.362Z,3.20
2023-05-24T10:26:13.056Z,3.10
2023-05-24T10:28:43.630Z,3.40
2023-05-24T10:31:18.718Z,3.00
2023-05-24T10:33:48.654Z,3.20
2023-05-24T10:36:16.428Z,3.10
2023-05-24T10:38:46.434Z,3.30
2023-05-24T10:41:14.303Z,3.00
2023-05-24T10:43:43.083Z,3.30
2023-05-24T10:46:11.779Z,3.40
2023-05-24T10:48:42.719Z,3.10
2023-05-24T10:53:57.600Z,3.30
2023-05-24T10:56:27.477Z,3.10
2023-05-24T10:58:55.897Z,3.10
2023-05-24T11:01:30.557Z,3.60
2023-05-24T11:04:13.648Z,3.70
2023-05-24T11:06:55.910Z,4.30
2023-05-24T11:09:24.268Z,4.30
2023-05-24T11:11:55.380Z,4.10
2023-05-24T11:14:25.192Z,4.40
2023-05-24T11:16:52.896Z,4.40
2023-05-24T11:19:27.888Z,3.80
2023-05-24T11:21:59.226Z,3.90
2023-05-24T11:26:12.471Z,4.40
2023-05-24T11:28:41.783Z,4.30
2023-05-24T11:31:10.129Z,4.00
2023-05-24T11:33:43.807Z,3.90
2023-05-24T11:36:11.418Z,3.70
2023-05-24T11:38:39.080Z,4.20
2023-05-24T11:41:07.973Z,3.80
2023-05-24T11:43:35.841Z,3.50
2023-05-24T11:46:03.563Z,3.60
2023-05-24T11:48:32.240Z,3.60
2023-05-24T11:51:00.365Z,4.00
2023-05-24T11:53:28.048Z,3.90
2023-05-24T11:55:56.100Z,4.10
2023-05-24T11:58:25.205Z,3.60
2023-05-24T12:00:53.157Z,4.10
2023-05-24T12:06:08.049Z,4.30
2023-05-24T12:11:26.730Z,3.70
2023-05-24T12:14:08.203Z,3.60
2023-05-24T12:16:36.791Z,4.20
2023-05-24T12:19:11.688Z,3.60
2023-05-24T12:21:46.181Z,3.70
2023-05-24T12:24:18.564Z,3.40
2023-05-24T12:26:48.434Z,3.90
2023-05-24T12:29:16.600Z,3.70
2023-05-24T12:31:49.130Z,3.50
2023-05-24T12:34:20.954Z,3.90
2023-05-24T12:36:48.714Z,3.80
2023-05-24T12:39:26.627Z,3.60
2023-05-24T12:41:55.390Z,4.10
2023-05-24T12:52:32.431Z,4.30
2023-05-24T12:55:00.405Z,3.70
2023-05-24T12:57:28.093Z,3.80
2023-05-24T12:59:56.969Z,4.40
2023-05-24T13:02:24.675Z,4.00
2023-05-24T13:04:52.434Z,4.30
2023-05-24T13:07:20.147Z,4.00
2023-05-24T13:09:47.810Z,4.40
2023-05-24T13:12:15.371Z,3.80
2023-05-24T13:14:44.773Z,3.80
2023-05-24T13:22:46.181Z,4.40
2023-05-24T13:27:55.425Z,4.30
2023-05-24T13:30:28.199Z,4.20
2023-05-24T13:32:56.169Z,4.30
2023-05-24T13:43:38.616Z,4.60
2023-05-24T13:48:47.591Z,4.40
2023-05-24T13:56:37.350Z,4.70
2023-05-24T14:01:47.007Z,3.80
2023-05-24T14:04:14.813Z,4.00
2023-05-24T14:06:42.579Z,4.20
2023-05-24T14:09:10.342Z,3.90
2023-05-24T14:11:38.169Z,3.90
2023-05-24T14:14:57.736Z,3.80
2023-05-24T14:16:57.934Z,3.90
2023-05-24T14:19:26.742Z,3.80
2023-05-24T14:21:55.326Z,3.70
2023-05-24T14:24:24.168Z,4.70
2023-05-24T14:26:51.732Z,4.40
2023-05-24T14:29:19.243Z,3.70
2023-05-24T14:31:58.879Z,3.90
2023-05-24T14:37:53.460Z,3.60
2023-05-24T14:43:04.841Z,3.60
2023-05-24T14:45:59.661Z,3.80
2023-05-24T14:48:34.786Z,3.30
2023-05-24T14:51:06.033Z,3.40
2023-05-24T14:53:52.333Z,3.10
2023-05-24T14:56:20.099Z,3.30
2023-05-24T14:58:48.181Z,3.70
2023-05-24T15:01:15.792Z,3.80
2023-05-24T15:03:49.948Z,3.50
2023-05-24T15:06:18.225Z,5.10
2023-05-24T15:08:45.989Z,3.40
2023-05-24T15:11:13.651Z,3.30
2023-05-24T15:13:41.619Z,3.30
2023-05-24T15:16:09.484Z,3.50
2023-05-24T15:26:47.652Z,3.30
2023-05-24T15:29:15.424Z,3.60
2023-05-24T15:31:43.076Z,3.60
2023-05-24T15:34:11.962Z,3.60
2023-05-24T15:36:46.591Z,3.80
2023-05-24T15:50:35.975Z,3.80
2023-05-24T15:53:21.000Z,3.70
2023-05-24T15:55:50.099Z,3.60
2023-05-24T15:58:19.506Z,3.70
2023-05-24T16:00:47.003Z,3.60
2023-05-24T16:06:07.683Z,3.40
2023-05-24T16:08:42.508Z,3.60
2023-05-24T16:11:12.526Z,3.80
2023-05-24T16:13:43.995Z,3.30
2023-05-24T16:16:20.366Z,2.80
2023-05-24T16:18:48.839Z,2.90
2023-05-24T16:21:19.484Z,2.70
2023-05-24T16:23:47.630Z,2.70
2023-05-24T16:26:17.694Z,2.70
2023-05-24T16:31:27.316Z,2.50
2023-05-24T16:39:22.023Z,2.50
2023-05-24T16:44:50.524Z,2.10
2023-05-24T16:47:22.008Z,2.60
2023-05-24T16:52:31.150Z,2.20
2023-05-24T17:00:37.152Z,2.40
2023-05-24T17:05:47.216Z,5.30
2023-05-24T17:13:38.877Z,2.40
2023-05-24T17:16:06.959Z,3.00
2023-05-24T17:24:00.658Z,2.70
2023-05-24T17:26:28.445Z,2.60
2023-05-24T17:28:56.803Z,2.40
2023-05-24T17:34:20.864Z,2.50
2023-05-24T17:36:48.567Z,2.60
2023-05-24T17:39:17.697Z,2.50
2023-05-24T17:41:45.418Z,2.70
2023-05-24T17:44:13.188Z,2.70
2023-05-24T17:46:41.934Z,2.30
2023-05-24T17:49:11.737Z,2.90
2023-05-24T17:51:39.553Z,2.20
2023-05-24T17:54:07.208Z,3.00
2023-05-24T17:56:34.871Z,3.10
2023-05-24T17:59:02.537Z,3.00
2023-05-24T18:01:30.376Z,3.30
2023-05-24T18:03:58.267Z,3.70
2023-05-24T18:06:25.879Z,2.70
2023-05-24T18:08:53.902Z,2.40
2023-05-24T18:11:22.271Z,2.60
2023-05-24T18:13:49.951Z,3.00
2023-05-24T18:16:18.123Z,3.00
2023-05-24T18:18:46.076Z,3.50
2023-05-24T18:21:13.838Z,3.80
2023-05-24T18:23:42.667Z,3.30
2023-05-24T18:26:11.550Z,3.40
2023-05-24T18:28:39.695Z,3.90
2023-05-24T18:31:10.576Z,4.10
2023-05-24T18:33:38.604Z,5.00
2023-05-24T18:36:06.714Z,5.30
2023-05-24T18:38:35.169Z,4.80
2023-05-24T18:41:09.598Z,4.50
2023-05-24T18:43:37.559Z,4.50
2023-05-24T18:46:05.382Z,4.60
2023-05-24T18:48:33.656Z,4.90
2023-05-24T18:51:03.045Z,4.80
2023-05-24T18:53:30.874Z,4.40
2023-05-24T18:55:58.633Z,4.40
2023-05-24T18:58:26.292Z,3.60
2023-05-24T19:00:54.124Z,3.80
2023-05-24T19:03:22.558Z,3.30
2023-05-24T19:05:51.226Z,3.50
2023-05-24T19:08:18.999Z,3.00
2023-05-24T19:10:46.960Z,2.80
2023-05-24T19:13:15.064Z,3.30
2023-05-24T19:15:43.094Z,2.60
2023-05-24T19:18:11.278Z,3.30
2023-05-24T19:20:39.217Z,3.30
2023-05-24T19:23:07.314Z,3.70
2023-05-24T19:25:41.998Z,3.00
2023-05-24T19:28:11.053Z,3.00
2023-05-24T19:30:38.718Z,2.90
2023-05-24T19:33:07.818Z,2.90
2023-05-24T19:35:36.769Z,3.30
2023-05-24T19:38:04.372Z,3.70
2023-05-24T19:40:32.658Z,3.20
2023-05-24T19:43:01.125Z,3.70
2023-05-24T19:45:28.689Z,3.40
2023-05-24T19:47:56.365Z,3.20
2023-05-24T19:50:26.448Z,3.30
2023-05-24T19:52:55.260Z,3.00
2023-05-24T19:55:23.312Z,3.50
2023-05-24T19:57:52.120Z,3.50
2023-05-24T20:00:19.890Z,4.10
2023-05-24T20:02:47.448Z,3.90
2023-05-24T20:05:17.675Z,3.60
2023-05-24T20:07:45.737Z,3.40
2023-05-24T20:10:13.504Z,3.80
2023-05-24T20:12:43.008Z,4.20
2023-05-24T20:15:11.622Z,5.40
2023-05-24T20:17:39.390Z,6.00
2023-05-24T20:20:08.477Z,7.80
2023-05-24T20:22:36.128Z,6.80
2023-05-24T20:25:04.083Z,8.90
2023-05-24T20:27:31.751Z,9.90
2023-05-24T20:29:59.421Z,10.60
2023-05-24T20:32:27.151Z,12.00
2023-05-24T20:34:54.859Z,10.90
2023-05-24T20:37:22.538Z,9.40
2023-05-24T20:39:50.577Z,7.40
2023-05-24T20:42:19.162Z,6.90
2023-05-24T20:44:46.922Z,6.80
2023-05-24T20:47:17.952Z,5.70
2023-05-24T20:49:46.043Z,5.10
2023-05-24T20:52:13.595Z,5.10
2023-05-24T20:54:42.078Z,5.00
2023-05-24T20:57:09.842Z,5.40
2023-05-24T20:59:37.504Z,6.10
2023-05-24T21:02:05.711Z,5.90
2023-05-24T21:04:33.441Z,5.90
2023-05-24T21:07:01.321Z,6.20
2023-05-24T21:09:28.979Z,5.50
2023-05-24T21:11:57.374Z,5.40
2023-05-24T21:14:26.854Z,6.20
2023-05-24T21:16:54.693Z,6.00
2023-05-24T21:19:22.283Z,6.20
2023-05-24T21:21:49.961Z,6.60
2023-05-24T21:24:18.325Z,6.90
2023-05-24T21:26:46.810Z,7.00
2023-05-24T21:29:15.185Z,6.60
2023-05-24T21:31:42.891Z,7.50
2023-05-24T21:34:10.611Z,8.00
2023-05-24T21:36:38.273Z,8.00
2023-05-24T21:39:08.425Z,7.70
2023-05-24T21:41:37.698Z,9.10
2023-05-24T21:44:08.427Z,11.30
2023-05-24T21:46:36.734Z,12.20
2023-05-24T21:49:04.477Z,12.20
2023-05-24T21:51:33.055Z,12.00
2023-05-24T21:54:00.893Z,12.80
2023-05-24T21:56:29.197Z,12.20
2023-05-24T21:58:56.923Z,11.10
2023-05-24T22:01:25.568Z,12.00
2023-05-24T22:03:54.910Z,11.40
2023-05-24T22:06:23.634Z,9.90
2023-05-24T22:08:52.115Z,9.70
2023-05-24T22:11:19.885Z,10.00
2023-05-24T22:13:47.544Z,9.40
2023-05-24T22:16:15.241Z,9.90
2023-05-24T22:18:42.972Z,10.30
2023-05-24T22:21:10.531Z,9.40
2023-05-24T22:23:39.425Z,8.80
2023-05-24T22:26:07.389Z,9.30
2023-05-24T22:28:55.051Z,9.60
2023-05-24T22:31:25.790Z,9.30
2023-05-24T22:33:53.526Z,9.40
2023-05-24T22:36:23.076Z,9.30
2023-05-24T22:38:51.885Z,8.30
2023-05-24T22:41:19.691Z,8.00
2023-05-24T22:43:47.353Z,7.60
2023-05-24T22:46:15.028Z,8.10
2023-05-24T22:48:42.679Z,6.70
2023-05-24T22:51:12.387Z,7.40
2023-05-24T22:53:40.057Z,7.20
2023-05-24T22:56:10.736Z,7.40
2023-05-24T22:58:39.224Z,7.00
2023-05-24T23:01:07.448Z,6.80
2023-05-24T23:03:35.357Z,6.90
2023-05-24T23:06:04.736Z,7.70
2023-05-24T23:08:32.789Z,6.90
2023-05-24T23:11:00.775Z,7.40
2023-05-24T23:13:33.521Z,6.50
2023-05-24T23:16:01.405Z,6.20
2023-05-24T23:18:29.275Z,7.10
2023-05-24T23:20:56.945Z,6.70
2023-05-24T23:23:25.099Z,7.60
2023-05-24T23:25:52.661Z,6.60
2023-05-24T23:28:20.274Z,6.10
2023-05-24T23:30:48.819Z,6.30
2023-05-24T23:33:16.453Z,7.10
2023-05-24T23:35:44.554Z,6.60
2023-05-24T23:38:14.009Z,6.10
2023-05-24T23:40:41.813Z,6.70
2023-05-24T23:45:18.509Z,6.70
2023-05-24T23:47:46.328Z,7.20
2023-05-24T23:50:17.644Z,6.50
2023-05-24T23:52:47.018Z,7.70
2023-05-24T23:55:15.807Z,7.20
2023-05-24T23:57:43.401Z,7.60
